createdAt,value
2019-02-06T00:01:12.928Z,71.90
2019-02-06T00:03:52.803Z,71.40
2019-02-06T00:06:32.878Z,71.20
2019-02-06T00:09:14.416Z,72.00
2019-02-06T00:11:42.254Z,71.80
2019-02-06T00:14:29.295Z,71.60
2019-02-06T00:17:37.378Z,71.20
2019-02-06T00:20:17.631Z,71.20
2019-02-06T00:22:58.067Z,70.60
2019-02-06T00:25:38.034Z,70.60
2019-02-06T00:28:18.248Z,70.10
2019-02-06T00:30:58.474Z,69.90
2019-02-06T00:33:39.261Z,70.00
2019-02-06T00:36:19.327Z,70.70
2019-02-06T00:38:59.221Z,69.70
2019-02-06T00:41:39.616Z,70.00
2019-02-06T00:44:19.678Z,70.10
2019-02-06T00:46:59.909Z,69.60
2019-02-06T00:49:39.677Z,69.30
2019-02-06T00:52:19.647Z,70.10
2019-02-06T00:55:00.051Z,69.30
2019-02-06T00:57:41.079Z,69.70
2019-02-06T01:00:21.868Z,69.40
2019-02-06T01:03:02.141Z,70.00
2019-02-06T01:05:42.345Z,69.70
2019-02-06T01:08:22.040Z,71.30
2019-02-06T01:11:02.282Z,71.20
2019-02-06T01:13:41.930Z,71.40
2019-02-06T01:16:22.363Z,71.90
2019-02-06T01:19:02.344Z,72.60
2019-02-06T01:21:42.461Z,73.20
2019-02-06T01:24:22.860Z,72.90
2019-02-06T01:27:02.763Z,72.90
2019-02-06T01:29:42.724Z,72.40
2019-02-06T01:32:22.942Z,72.10
2019-02-06T01:35:03.642Z,72.20
2019-02-06T01:37:44.473Z,71.80
2019-02-06T01:40:24.600Z,71.60
2019-02-06T01:43:04.460Z,71.10
2019-02-06T01:45:44.935Z,71.40
2019-02-06T01:48:23.196Z,71.10
2019-02-06T01:51:10.169Z,72.30
2019-02-06T01:53:49.992Z,73.40
2019-02-06T01:56:29.833Z,74.50
2019-02-06T01:59:09.915Z,74.40
2019-02-06T02:01:50.254Z,74.30
2019-02-06T02:04:29.972Z,74.20
2019-02-06T02:07:10.194Z,74.30
2019-02-06T02:09:49.984Z,74.40
2019-02-06T02:12:30.590Z,74.40
2019-02-06T02:15:10.524Z,74.30
2019-02-06T02:17:50.804Z,74.80
2019-02-06T02:20:30.620Z,74.40
2019-02-06T02:23:10.934Z,74.50
2019-02-06T02:25:50.646Z,74.80
2019-02-06T02:28:30.633Z,74.60
2019-02-06T02:31:10.880Z,74.80
2019-02-06T02:33:51.389Z,74.00
2019-02-06T02:36:31.373Z,73.80
2019-02-06T02:39:12.110Z,74.00
2019-02-06T02:41:52.151Z,73.60
2019-02-06T02:44:32.314Z,73.20
2019-02-06T02:47:12.638Z,72.60
2019-02-06T02:49:52.291Z,72.50
2019-02-06T02:52:32.438Z,72.80
2019-02-06T02:55:12.401Z,72.30
2019-02-06T02:57:52.294Z,72.00
2019-02-06T03:00:51.741Z,72.20
2019-02-06T03:03:51.812Z,72.20
2019-02-06T03:06:32.516Z,72.00
2019-02-06T03:09:12.667Z,71.40
2019-02-06T03:11:52.897Z,70.90
2019-02-06T03:14:33.207Z,70.30
2019-02-06T03:17:13.258Z,70.70
2019-02-06T03:19:53.308Z,70.80
2019-02-06T03:22:33.289Z,70.20
2019-02-06T03:25:13.491Z,70.00
2019-02-06T03:27:53.426Z,70.10
2019-02-06T03:30:31.936Z,70.30
2019-02-06T03:33:18.876Z,70.60
2019-02-06T03:35:58.624Z,70.80
2019-02-06T03:38:38.606Z,71.40
2019-02-06T03:41:18.665Z,71.30
2019-02-06T03:43:58.612Z,71.70
2019-02-06T03:46:38.866Z,72.60
2019-02-06T03:49:18.928Z,73.10
2019-02-06T03:51:59.068Z,73.30
2019-02-06T03:54:39.263Z,73.70
2019-02-06T03:57:19.733Z,74.10
2019-02-06T04:00:00.326Z,73.60
2019-02-06T04:02:40.897Z,74.10
2019-02-06T04:05:21.129Z,74.20
2019-02-06T04:08:00.713Z,73.80
2019-02-06T04:10:40.795Z,73.50
2019-02-06T04:13:20.624Z,73.80
2019-02-06T04:16:00.859Z,73.70
2019-02-06T04:18:40.969Z,72.90
2019-02-06T04:21:21.013Z,72.50
2019-02-06T04:24:00.769Z,72.40
2019-02-06T04:26:41.003Z,72.50
2019-02-06T04:29:20.990Z,71.60
2019-02-06T04:32:01.134Z,71.40
2019-02-06T04:34:41.370Z,71.40
2019-02-06T04:37:21.432Z,71.40
2019-02-06T04:40:01.290Z,70.70
2019-02-06T04:42:41.505Z,71.00
2019-02-06T04:45:21.490Z,70.60
2019-02-06T04:48:01.764Z,70.80
2019-02-06T04:50:43.134Z,70.60
2019-02-06T04:53:23.371Z,70.60
2019-02-06T04:56:03.542Z,69.90
2019-02-06T04:58:43.409Z,69.40
2019-02-06T05:01:23.831Z,69.80
2019-02-06T05:04:03.834Z,70.80
2019-02-06T05:06:43.800Z,72.00
2019-02-06T05:09:23.836Z,72.70
2019-02-06T05:12:03.792Z,73.20
2019-02-06T05:14:43.725Z,72.80
2019-02-06T05:17:24.028Z,73.20
2019-02-06T05:20:03.753Z,72.80
2019-02-06T05:22:43.922Z,73.50
2019-02-06T05:25:23.811Z,73.40
2019-02-06T05:28:03.934Z,72.80
2019-02-06T05:30:44.082Z,72.00
2019-02-06T05:33:24.073Z,71.70
2019-02-06T05:36:03.938Z,73.20
2019-02-06T05:38:43.619Z,72.90
2019-02-06T05:41:23.613Z,73.00
2019-02-06T05:44:03.657Z,72.70
2019-02-06T05:46:43.616Z,72.30
2019-02-06T05:49:23.375Z,72.30
2019-02-06T05:52:03.711Z,72.40
2019-02-06T05:54:43.794Z,71.60
2019-02-06T05:57:23.834Z,72.30
2019-02-06T06:00:03.977Z,71.80
2019-02-06T06:02:43.870Z,71.80
2019-02-06T06:05:23.707Z,71.50
2019-02-06T06:08:04.291Z,71.60
2019-02-06T06:10:44.757Z,71.90
2019-02-06T06:13:25.054Z,72.20
2019-02-06T06:16:04.779Z,72.40
2019-02-06T06:18:45.197Z,71.90
2019-02-06T06:21:24.837Z,71.80
2019-02-06T06:24:04.961Z,72.60
2019-02-06T06:26:44.872Z,73.40
2019-02-06T06:29:24.862Z,73.30
2019-02-06T06:32:05.309Z,72.90
2019-02-06T06:34:45.492Z,73.30
2019-02-06T06:37:25.596Z,74.30
2019-02-06T06:40:05.477Z,73.40
2019-02-06T06:42:45.817Z,73.50
2019-02-06T06:45:26.598Z,74.00
2019-02-06T06:48:06.250Z,73.50
2019-02-06T06:50:46.340Z,73.40
2019-02-06T06:53:26.591Z,73.70
2019-02-06T06:56:06.582Z,73.90
2019-02-06T06:58:46.870Z,73.10
2019-02-06T07:01:26.650Z,73.00
2019-02-06T07:04:06.795Z,73.40
2019-02-06T07:06:47.045Z,74.00
2019-02-06T07:09:27.172Z,73.50
2019-02-06T07:12:07.443Z,73.50
2019-02-06T07:14:47.152Z,74.10
2019-02-06T07:17:27.046Z,74.10
2019-02-06T07:20:07.176Z,74.10
2019-02-06T07:22:47.568Z,74.60
2019-02-06T07:25:28.796Z,74.70
2019-02-06T07:28:08.752Z,74.60
2019-02-06T07:30:48.844Z,74.70
2019-02-06T07:33:29.026Z,74.90
2019-02-06T07:36:09.078Z,74.70
2019-02-06T07:38:49.316Z,74.60
2019-02-06T07:41:29.076Z,74.40
2019-02-06T07:44:09.016Z,74.80
2019-02-06T07:46:49.366Z,74.90
2019-02-06T07:49:29.684Z,75.20
2019-02-06T07:52:10.161Z,75.30
2019-02-06T07:54:50.399Z,75.80
2019-02-06T07:57:31.378Z,76.10
2019-02-06T08:00:12.225Z,76.50
2019-02-06T08:02:51.949Z,77.30
2019-02-06T08:05:32.325Z,77.60
2019-02-06T08:08:13.360Z,78.40
2019-02-06T08:10:53.459Z,78.30
2019-02-06T08:13:33.934Z,78.70
2019-02-06T08:16:14.773Z,78.30
2019-02-06T08:18:54.824Z,77.40
2019-02-06T08:21:34.383Z,77.50
2019-02-06T08:24:14.536Z,77.80
2019-02-06T08:26:54.644Z,78.10
2019-02-06T08:29:34.888Z,77.40
2019-02-06T08:32:16.197Z,81.00
2019-02-06T08:34:55.958Z,81.40
2019-02-06T08:37:36.064Z,83.20
2019-02-06T08:40:16.220Z,80.60
2019-02-06T08:42:56.699Z,78.70
2019-02-06T08:45:37.030Z,79.10
2019-02-06T08:48:16.711Z,76.00
2019-02-06T08:50:56.846Z,77.10
2019-02-06T08:53:36.742Z,75.30
2019-02-06T08:56:16.964Z,75.30
2019-02-06T08:58:57.334Z,75.90
2019-02-06T09:01:37.382Z,74.90
2019-02-06T09:04:17.482Z,72.30
2019-02-06T09:06:57.538Z,72.30
2019-02-06T09:09:38.861Z,74.30
2019-02-06T09:12:18.608Z,75.40
2019-02-06T09:14:58.984Z,74.60
2019-02-06T09:17:38.686Z,74.10
2019-02-06T09:20:18.932Z,72.10
2019-02-06T09:22:58.742Z,71.20
2019-02-06T09:25:39.265Z,70.70
2019-02-06T09:28:20.414Z,70.30
2019-02-06T09:31:06.933Z,70.80
2019-02-06T09:34:09.954Z,70.50
2019-02-06T09:36:49.960Z,69.10
2019-02-06T09:39:30.035Z,67.00
2019-02-06T09:42:10.313Z,67.90
2019-02-06T09:44:51.466Z,66.90
2019-02-06T09:47:31.704Z,66.00
2019-02-06T09:50:11.600Z,66.10
2019-02-06T09:52:51.759Z,65.70
2019-02-06T09:55:31.680Z,65.70
2019-02-06T09:58:11.734Z,66.30
2019-02-06T10:00:51.877Z,66.70
2019-02-06T10:03:31.370Z,66.50
2019-02-06T10:06:12.126Z,66.30
2019-02-06T10:08:52.088Z,67.00
2019-02-06T10:11:32.180Z,67.90
2019-02-06T10:14:12.241Z,67.20
2019-02-06T10:16:51.858Z,67.50
2019-02-06T10:19:32.082Z,67.60
2019-02-06T10:22:12.376Z,67.40
2019-02-06T10:24:52.200Z,66.00
2019-02-06T10:27:32.215Z,66.80
2019-02-06T10:30:12.468Z,67.70
2019-02-06T10:32:52.136Z,67.80
2019-02-06T10:35:32.148Z,66.20
2019-02-06T10:38:12.224Z,66.10
2019-02-06T10:40:52.596Z,66.50
2019-02-06T10:43:35.827Z,66.30
2019-02-06T10:46:18.161Z,66.00
2019-02-06T10:48:57.432Z,66.00
2019-02-06T10:51:37.512Z,66.40
2019-02-06T10:54:17.420Z,66.70
2019-02-06T10:56:44.923Z,67.20
2019-02-06T10:59:32.075Z,67.80
2019-02-06T11:02:11.635Z,67.20
2019-02-06T11:04:51.788Z,66.50
2019-02-06T11:07:32.094Z,67.70
2019-02-06T11:10:11.862Z,66.90
2019-02-06T11:12:51.791Z,65.90
2019-02-06T11:15:31.950Z,66.40
2019-02-06T11:18:11.924Z,67.20
2019-02-06T11:20:52.314Z,66.40
2019-02-06T11:23:32.283Z,66.50
2019-02-06T11:26:12.234Z,65.00
2019-02-06T11:28:52.188Z,65.30
2019-02-06T11:31:31.967Z,65.00
2019-02-06T11:34:12.124Z,66.50
2019-02-06T11:36:52.158Z,65.10
2019-02-06T11:39:32.320Z,66.90
2019-02-06T11:42:13.035Z,64.10
2019-02-06T11:44:53.933Z,62.20
2019-02-06T11:47:35.108Z,63.20
2019-02-06T11:50:15.734Z,64.10
2019-02-06T11:52:56.731Z,62.80
2019-02-06T11:55:37.572Z,63.90
2019-02-06T11:58:18.447Z,63.90
2019-02-06T12:03:58.991Z,65.00
2019-02-06T12:06:38.660Z,66.30
2019-02-06T12:09:18.669Z,64.30
2019-02-06T12:11:59.510Z,62.30
2019-02-06T12:14:40.052Z,60.20
2019-02-06T12:17:20.013Z,60.70
2019-02-06T12:20:00.698Z,59.50
2019-02-06T12:22:41.394Z,60.60
2019-02-06T12:25:21.242Z,59.10
2019-02-06T12:28:01.476Z,57.30
2019-02-06T12:30:41.730Z,58.60
2019-02-06T12:33:21.584Z,58.70
2019-02-06T12:36:02.234Z,60.00
2019-02-06T12:38:53.222Z,60.10
2019-02-06T12:41:25.048Z,60.50
2019-02-06T12:44:05.199Z,60.90
2019-02-06T12:46:45.358Z,61.20
2019-02-06T12:49:25.424Z,62.50
2019-02-06T12:52:05.616Z,63.60
2019-02-06T12:54:45.255Z,60.70
2019-02-06T12:57:36.029Z,58.80
2019-02-06T13:00:07.559Z,58.90
2019-02-06T13:02:47.618Z,57.70
2019-02-06T13:05:27.613Z,61.70
2019-02-06T13:08:07.461Z,58.50
2019-02-06T13:10:47.900Z,57.60
2019-02-06T13:13:28.809Z,56.40
2019-02-06T13:16:08.461Z,59.60
2019-02-06T13:18:48.808Z,57.60
2019-02-06T13:21:29.003Z,59.30
2019-02-06T13:24:08.951Z,59.80
2019-02-06T13:26:49.309Z,57.70
2019-02-06T13:29:29.378Z,57.80
2019-02-06T13:32:09.610Z,57.90
2019-02-06T13:34:50.820Z,58.80
2019-02-06T13:37:30.321Z,58.80
2019-02-06T13:40:10.492Z,59.70
2019-02-06T13:42:50.385Z,58.40
2019-02-06T13:45:30.825Z,58.10
2019-02-06T13:48:10.900Z,58.80
2019-02-06T13:50:50.690Z,58.20
2019-02-06T13:53:30.752Z,61.50
2019-02-06T13:56:10.751Z,57.70
2019-02-06T13:58:50.632Z,57.80
2019-02-06T14:01:30.789Z,57.20
2019-02-06T14:04:10.942Z,62.50
2019-02-06T14:06:51.383Z,57.70
2019-02-06T14:09:31.155Z,57.20
2019-02-06T14:12:13.422Z,57.60
2019-02-06T14:14:53.408Z,58.10
2019-02-06T14:17:33.473Z,57.80
2019-02-06T14:20:13.834Z,56.10
2019-02-06T14:22:53.479Z,56.20
2019-02-06T14:25:33.771Z,57.10
2019-02-06T14:28:14.381Z,57.10
2019-02-06T14:30:54.215Z,56.80
2019-02-06T14:33:34.644Z,56.60
2019-02-06T14:36:35.467Z,57.80
2019-02-06T14:39:41.902Z,56.70
2019-02-06T14:42:21.876Z,56.60
2019-02-06T14:45:01.925Z,56.00
2019-02-06T14:47:42.669Z,56.10
2019-02-06T14:50:22.683Z,58.10
2019-02-06T14:53:02.806Z,56.60
2019-02-06T14:55:43.691Z,58.20
2019-02-06T14:58:50.396Z,58.00
2019-02-06T15:01:57.562Z,56.90
2019-02-06T15:04:37.312Z,58.10
2019-02-06T15:07:17.431Z,57.40
2019-02-06T15:09:57.244Z,58.10
2019-02-06T15:12:37.440Z,60.30
2019-02-06T15:15:17.814Z,59.20
2019-02-06T15:17:58.356Z,58.20
2019-02-06T15:20:38.835Z,57.00
2019-02-06T15:23:18.788Z,56.90
2019-02-06T15:25:58.650Z,57.70
2019-02-06T15:28:38.906Z,58.30
2019-02-06T15:31:19.073Z,57.90
2019-02-06T15:33:59.472Z,57.50
2019-02-06T15:36:39.397Z,57.70
2019-02-06T15:39:19.401Z,58.20
2019-02-06T15:41:59.398Z,58.70
2019-02-06T15:44:39.243Z,59.00
2019-02-06T15:47:19.728Z,59.00
2019-02-06T15:49:59.298Z,59.00
2019-02-06T15:52:39.660Z,58.60
2019-02-06T15:55:20.676Z,59.00
2019-02-06T15:58:00.427Z,59.40
2019-02-06T16:00:40.848Z,59.50
2019-02-06T16:03:20.792Z,59.80
2019-02-06T16:06:11.323Z,60.90
2019-02-06T16:08:50.974Z,61.20
2019-02-06T16:11:41.657Z,61.40
2019-02-06T16:14:13.160Z,62.00
2019-02-06T16:16:53.058Z,60.10
2019-02-06T16:19:33.215Z,60.30
2019-02-06T16:22:13.667Z,61.30
2019-02-06T16:24:54.516Z,60.20
2019-02-06T16:27:34.797Z,60.50
2019-02-06T16:30:15.068Z,60.90
2019-02-06T16:32:55.042Z,61.00
2019-02-06T16:35:35.200Z,60.50
2019-02-06T16:38:15.364Z,60.20
2019-02-06T16:40:55.372Z,60.00
2019-02-06T16:43:36.456Z,60.20
2019-02-06T16:46:16.392Z,60.30
2019-02-06T16:48:56.590Z,60.40
2019-02-06T16:51:36.442Z,60.90
2019-02-06T16:54:16.857Z,61.60
2019-02-06T16:56:56.528Z,62.00
2019-02-06T16:59:36.708Z,62.20
2019-02-06T17:02:16.829Z,62.50
2019-02-06T17:04:57.906Z,62.70
2019-02-06T17:07:37.930Z,62.60
2019-02-06T17:15:38.304Z,61.90
2019-02-06T17:18:17.990Z,63.10
2019-02-06T17:20:57.882Z,63.40
2019-02-06T17:23:38.334Z,63.70
2019-02-06T17:26:18.721Z,63.40
2019-02-06T17:28:58.901Z,63.70
2019-02-06T17:31:39.024Z,63.70
2019-02-06T17:34:19.092Z,64.00
2019-02-06T17:36:59.368Z,64.30
2019-02-06T17:39:39.635Z,64.30
2019-02-06T17:42:19.574Z,65.00
2019-02-06T17:45:00.227Z,64.90
2019-02-06T17:47:39.926Z,64.50
2019-02-06T17:50:19.887Z,64.10
2019-02-06T17:52:59.911Z,64.40
2019-02-06T17:55:40.524Z,64.30
2019-02-06T17:58:20.977Z,63.60
2019-02-06T18:01:03.408Z,63.70
2019-02-06T18:03:43.714Z,64.40
2019-02-06T18:06:23.823Z,64.00
2019-02-06T18:09:03.940Z,63.60
2019-02-06T18:11:45.752Z,63.40
2019-02-06T18:14:26.451Z,63.90
2019-02-06T18:17:07.148Z,64.10
2019-02-06T18:19:48.099Z,64.80
2019-02-06T18:22:27.812Z,65.20
2019-02-06T18:25:07.694Z,64.90
2019-02-06T18:27:47.662Z,64.90
2019-02-06T18:30:27.582Z,64.90
2019-02-06T18:33:07.999Z,64.70
2019-02-06T18:35:47.828Z,64.80
2019-02-06T18:38:28.228Z,65.80
2019-02-06T18:41:08.156Z,65.90
2019-02-06T18:43:48.201Z,67.00
2019-02-06T18:46:28.161Z,67.50
2019-02-06T18:49:08.314Z,67.80
2019-02-06T18:51:48.519Z,68.20
2019-02-06T18:54:28.895Z,68.60
2019-02-06T18:57:08.923Z,68.60
2019-02-06T18:59:48.892Z,68.20
2019-02-06T19:04:37.645Z,67.40
2019-02-06T19:07:18.082Z,66.20
2019-02-06T19:09:57.815Z,67.00
2019-02-06T19:12:47.645Z,66.40
2019-02-06T19:15:20.227Z,65.80
2019-02-06T19:18:01.101Z,66.10
2019-02-06T19:20:41.405Z,66.20
2019-02-06T19:23:21.832Z,67.30
2019-02-06T19:26:01.878Z,68.80
2019-02-06T19:28:41.983Z,69.80
2019-02-06T19:31:22.272Z,70.60
2019-02-06T19:34:02.412Z,70.90
2019-02-06T19:36:42.342Z,70.50
2019-02-06T19:39:22.445Z,69.80
2019-02-06T19:42:02.333Z,69.60
2019-02-06T19:44:42.664Z,69.90
2019-02-06T19:47:22.672Z,70.50
2019-02-06T19:50:02.706Z,70.50
2019-02-06T19:52:42.844Z,70.70
2019-02-06T19:55:22.792Z,69.90
2019-02-06T19:58:02.839Z,69.80
2019-02-06T20:00:43.005Z,68.90
2019-02-06T20:03:23.088Z,68.80
2019-02-06T20:06:05.579Z,68.70
2019-02-06T20:08:45.142Z,70.00
2019-02-06T20:11:25.170Z,70.40
2019-02-06T20:14:05.016Z,70.00
2019-02-06T20:16:45.876Z,69.90
2019-02-06T20:19:26.433Z,69.90
2019-02-06T20:22:06.402Z,69.70
2019-02-06T20:24:46.524Z,70.00
2019-02-06T20:27:26.958Z,69.90
2019-02-06T20:30:07.121Z,69.20
2019-02-06T20:32:48.190Z,68.60
2019-02-06T20:35:27.680Z,68.70
2019-02-06T20:38:08.287Z,68.70
2019-02-06T20:40:47.928Z,68.20
2019-02-06T20:43:28.240Z,68.60
2019-02-06T20:46:08.365Z,68.90
2019-02-06T20:48:48.146Z,68.80
2019-02-06T20:51:28.113Z,69.60
2019-02-06T20:54:08.215Z,69.10
2019-02-06T20:56:48.439Z,69.40
2019-02-06T20:59:28.443Z,69.50
2019-02-06T21:02:08.520Z,69.50
2019-02-06T21:04:48.648Z,69.90
2019-02-06T21:07:28.616Z,71.20
2019-02-06T21:10:08.519Z,71.60
2019-02-06T21:12:48.956Z,71.90
2019-02-06T21:15:32.726Z,71.50
2019-02-06T21:18:11.770Z,71.60
2019-02-06T21:20:52.072Z,72.00
2019-02-06T21:23:31.866Z,71.20
2019-02-06T21:26:12.004Z,71.00
2019-02-06T21:28:52.133Z,70.90
2019-02-06T21:31:32.003Z,70.70
2019-02-06T21:34:12.090Z,70.50
2019-02-06T21:36:51.994Z,70.10
2019-02-06T21:39:32.302Z,70.40
2019-02-06T21:42:12.194Z,70.30
2019-02-06T21:44:52.536Z,70.00
2019-02-06T21:47:32.466Z,70.10
2019-02-06T21:50:12.408Z,69.80
2019-02-06T21:52:52.522Z,69.30
2019-02-06T21:55:32.623Z,69.50
2019-02-06T21:58:12.559Z,69.00
2019-02-06T22:00:53.037Z,69.00
2019-02-06T22:03:33.027Z,69.20
2019-02-06T22:06:13.108Z,68.70
2019-02-06T22:08:53.653Z,70.00
2019-02-06T22:11:33.710Z,69.20
2019-02-06T22:14:13.568Z,70.00
2019-02-06T22:16:53.701Z,70.90
2019-02-06T22:19:33.894Z,70.00
2019-02-06T22:22:14.023Z,70.40
2019-02-06T22:24:53.974Z,70.30
2019-02-06T22:27:34.125Z,70.20
2019-02-06T22:30:14.735Z,69.70
2019-02-06T22:32:54.503Z,69.90
2019-02-06T22:35:35.802Z,69.70
2019-02-06T22:38:15.670Z,69.90
2019-02-06T22:40:55.651Z,70.20
2019-02-06T22:43:35.902Z,69.70
2019-02-06T22:49:01.973Z,69.50
2019-02-06T22:51:42.717Z,69.80
2019-02-06T22:54:23.061Z,69.50
2019-02-06T22:57:02.869Z,70.20
2019-02-06T22:59:43.707Z,70.70
2019-02-06T23:02:23.984Z,71.00
2019-02-06T23:05:03.632Z,70.80
2019-02-06T23:07:46.206Z,70.80
2019-02-06T23:10:25.698Z,71.00
2019-02-06T23:13:05.964Z,70.80
2019-02-06T23:15:46.808Z,70.80
2019-02-06T23:18:26.877Z,70.30
2019-02-06T23:21:06.892Z,70.50
2019-02-06T23:23:46.898Z,70.90
2019-02-06T23:26:27.022Z,70.60
2019-02-06T23:29:07.230Z,70.60
2019-02-06T23:31:47.700Z,71.40
2019-02-06T23:34:27.642Z,71.90
2019-02-06T23:37:08.041Z,72.00
2019-02-06T23:39:49.926Z,72.90
2019-02-06T23:42:31.133Z,73.40
2019-02-06T23:45:11.373Z,73.60
2019-02-06T23:47:51.511Z,73.80
2019-02-06T23:50:31.883Z,74.10
2019-02-06T23:53:12.084Z,74.30
2019-02-06T23:55:52.946Z,74.70
2019-02-06T23:58:33.239Z,74.80
